Time;durP1;ratioP1;P1;durP2;ratioP2;P2;SDS_P1;SDS_P2;PMS_P1;PMS_P2;Temp;Humidity;BMP_temperature;BMP_pressure;BME280_temperature;BME280_humidity;BME280_pressure;Samples;Min_cycle;Max_cycle;Signal;HPM_P1;HPM_P2
2022/12/23 00:02:20;;;;;;;18.80;11.00;;;;;;;6.63;87.55;98999.21;125967;1304;107523;-72
2022/12/23 00:05:26;;;;;;;15.70;10.40;;;;;;;6.61;87.75;99000.02;125958;1304;109223;-72
2022/12/23 00:08:31;;;;;;;17.40;11.20;;;;;;;6.63;87.92;99002.27;125988;1296;107559;-73
2022/12/23 00:15:03;;;;;;;20.60;12.20;;;;;;;6.66;88.25;99002.30;125975;1304;107572;-75
2022/12/23 00:15:05;;;;;;;19.30;12.50;;;;;;;6.70;87.86;99005.75;126064;1304;105602;-73
2022/12/23 00:18:11;;;;;;;19.30;12.70;;;;;;;6.72;88.22;99006.62;125999;1304;107407;-73
2022/12/23 00:21:18;;;;;;;22.20;13.60;;;;;;;6.71;88.26;99011.11;126027;1296;106556;-73
2022/12/23 00:24:23;;;;;;;16.60;11.10;;;;;;;6.69;87.92;99008.83;126004;1297;107690;-73
2022/12/23 00:27:29;;;;;;;17.90;11.50;;;;;;;6.69;88.34;99007.40;126010;1304;106172;-73
2022/12/23 00:30:34;;;;;;;19.30;12.00;;;;;;;6.71;88.08;99009.00;125968;1303;107541;-73
2022/12/23 00:33:42;;;;;;;20.20;12.40;;;;;;;6.76;87.98;99018.58;125972;1304;107576;-73
2022/12/23 00:36:48;;;;;;;20.50;12.80;;;;;;;6.79;88.32;99019.45;126012;1304;107605;-73
2022/12/23 00:43:28;;;;;;;34.80;18.00;;;;;;;6.85;88.34;99030.60;125156;1310;107545;-73
2022/12/23 00:46:33;;;;;;;20.60;12.60;;;;;;;6.82;88.17;99030.34;125982;1310;107485;-73
2022/12/23 00:49:44;;;;;;;20.70;11.90;;;;;;;6.81;88.31;99023.37;125982;1304;108659;-73
2022/12/23 00:52:50;;;;;;;19.60;12.50;;;;;;;6.83;88.41;99023.28;126024;1304;106762;-72
2022/12/23 00:55:55;;;;;;;20.30;12.40;;;;;;;6.87;88.48;99023.12;125967;1304;108526;-72
2022/12/23 00:59:01;;;;;;;21.70;11.90;;;;;;;6.91;88.83;99028.05;126010;1304;106655;-72
2022/12/23 01:05:36;;;;;;;22.20;13.60;;;;;;;6.94;88.94;99028.58;125966;1304;107564;-72
2022/12/23 01:08:42;;;;;;;18.90;11.40;;;;;;;6.94;88.89;99032.80;125975;1295;107498;-73
2022/12/23 01:11:47;;;;;;;18.20;11.00;;;;;;;6.93;88.92;99035.94;125947;1304;107552;-74
2022/12/23 01:14:53;;;;;;;22.90;12.30;;;;;;;6.94;89.02;99038.46;125996;1304;107551;-74
2022/12/23 01:17:59;;;;;;;19.60;12.30;;;;;;;6.97;89.10;99039.91;125956;1300;107558;-73
2022/12/23 01:21:06;;;;;;;21.00;13.00;;;;;;;7.00;89.37;99040.52;125986;1300;107441;-73
2022/12/23 01:24:12;;;;;;;25.00;14.30;;;;;;;7.01;89.02;99040.23;126043;1304;106548;-74
2022/12/23 01:27:17;;;;;;;18.90;10.60;;;;;;;7.01;89.16;99041.45;125044;1304;1334116;-73
2022/12/23 01:30:23;;;;;;;17.50;10.60;;;;;;;7.00;89.37;99039.91;125991;1304;107688;-73
2022/12/23 01:33:29;;;;;;;19.60;12.30;;;;;;;7.02;89.50;99043.27;126002;1304;108842;-73
2022/12/23 01:36:35;;;;;;;21.70;14.20;;;;;;;7.06;89.38;99041.04;126022;1304;106686;-73
2022/12/23 01:39:40;;;;;;;41.20;16.40;;;;;;;7.12;89.27;99037.64;126013;1304;107557;-73
2022/12/23 01:42:46;;;;;;;36.30;14.90;;;;;;;7.15;89.55;99036.63;125960;1304;107554;-73
2022/12/23 01:45:51;;;;;;;26.30;11.90;;;;;;;7.15;89.46;99038.64;126003;1302;107724;-73
2022/12/23 01:48:57;;;;;;;19.80;10.80;;;;;;;7.13;89.85;99043.62;125983;1302;106760;-72
2022/12/23 01:52:03;;;;;;;25.90;12.60;;;;;;;7.14;89.81;99046.86;125995;1304;108640;-72
2022/12/23 01:55:11;;;;;;;21.70;12.80;;;;;;;7.18;89.70;99047.84;126013;1304;108392;-72
2022/12/23 01:58:20;;;;;;;17.60;11.70;;;;;;;7.22;89.72;99047.59;126017;1304;107571;-73
2022/12/23 02:04:51;;;;;;;16.90;10.70;;;;;;;7.21;90.05;99052.95;125967;1304;107492;-73
2022/12/23 02:11:43;;;;;;;20.70;12.30;;;;;;;7.14;89.74;99055.83;126029;1304;108672;-73
2022/12/23 02:18:48;;;;;;;22.60;15.00;;;;;;;7.23;90.13;99070.67;126022;1296;107556;-72
2022/12/23 02:22:13;;;;;;;26.60;18.90;;;;;;;7.24;89.71;99069.29;125971;1304;107523;-75
2022/12/23 02:25:38;;;;;;;27.50;14.60;;;;;;;7.25;89.80;99064.23;125983;1304;107437;-73
2022/12/23 02:29:12;;;;;;;18.90;11.20;;;;;;;7.18;89.87;99058.38;125986;1300;107287;-73
2022/12/23 02:32:23;;;;;;;21.70;13.00;;;;;;;7.25;89.70;99071.67;125988;1297;107588;-75
2022/12/23 02:35:37;;;;;;;18.20;12.40;;;;;;;7.29;89.69;99078.08;125981;1304;107371;-73
2022/12/23 02:38:51;;;;;;;18.70;13.30;;;;;;;7.33;89.75;99079.09;126013;1304;107569;-73
2022/12/23 02:42:03;;;;;;;17.10;12.00;;;;;;;7.34;89.59;99078.84;126010;1304;107433;-73
2022/12/23 02:45:13;;;;;;;20.00;12.50;;;;;;;7.34;89.78;99082.05;126025;1298;107463;-73
2022/12/23 02:48:24;;;;;;;19.60;11.70;;;;;;;7.33;89.70;99087.08;125949;1302;107683;-72
2022/12/23 02:51:33;;;;;;;19.80;11.40;;;;;;;7.32;89.71;99092.52;125988;1298;108772;-72
2022/12/23 02:54:45;;;;;;;17.80;10.80;;;;;;;7.32;89.75;99083.17;126014;1304;106499;-72
2022/12/23 02:57:53;;;;;;;15.50;10.50;;;;;;;7.34;89.75;99080.48;125980;1304;107623;-73
2022/12/23 03:01:02;;;;;;;14.40;10.40;;;;;;;7.36;89.63;99078.15;126020;1311;107549;-72
2022/12/23 03:04:08;;;;;;;15.70;10.40;;;;;;;7.36;89.64;99071.70;126037;1302;107602;-74
2022/12/23 03:07:34;;;;;;;15.60;10.40;;;;;;;7.36;89.66;99068.35;126033;1304;107301;-73
2022/12/23 03:10:52;;;;;;;13.50;8.60;;;;;;;7.34;89.70;99067.95;125984;1304;107380;-73
2022/12/23 03:14:30;;;;;;;12.50;8.90;;;;;;;7.32;89.72;99074.24;126034;1302;107545;-75
2022/12/23 03:17:48;;;;;;;13.80;9.50;;;;;;;7.32;89.91;99073.55;125735;1304;107550;-73
2022/12/23 03:21:03;;;;;;;13.40;10.30;;;;;;;7.36;89.74;99077.96;126016;1303;107514;-75
2022/12/23 03:24:20;;;;;;;13.40;10.00;;;;;;;7.38;89.68;99077.91;126013;1304;107477;-72
2022/12/23 03:27:31;;;;;;;14.10;10.30;;;;;;;7.37;89.52;99077.68;126054;1296;107518;-74
2022/12/23 03:30:40;;;;;;;13.40;9.80;;;;;;;7.33;89.51;99074.88;126054;1304;107518;-73
2022/12/23 03:33:52;;;;;;;11.40;8.00;;;;;;;7.27;89.51;99077.28;125978;1298;107540;-73
2022/12/23 03:37:03;;;;;;;11.40;7.90;;;;;;;7.21;89.40;99080.38;126030;1304;107657;-75
2022/12/23 03:40:15;;;;;;;12.10;8.90;;;;;;;7.18;89.41;99085.17;126028;1304;109256;-71
2022/12/23 03:43:25;;;;;;;11.50;8.00;;;;;;;7.15;89.39;99089.91;125993;1304;107124;-71
2022/12/23 03:46:35;;;;;;;12.70;8.80;;;;;;;7.13;89.33;99096.27;126028;1304;107423;-71
2022/12/23 03:49:47;;;;;;;12.60;9.00;;;;;;;7.11;89.18;99095.26;126053;1294;107517;-71
2022/12/23 03:52:59;;;;;;;11.70;8.30;;;;;;;7.06;89.09;99107.21;125931;1298;106456;-72
2022/12/23 03:56:09;;;;;;;10.60;7.60;;;;;;;6.98;89.20;99114.43;126068;1305;106317;-71
2022/12/23 03:59:19;;;;;;;10.70;7.40;;;;;;;6.92;89.25;99112.44;126118;1304;107669;-71
2022/12/23 04:02:33;;;;;;;16.90;9.00;;;;;;;6.86;89.30;99108.37;126037;1297;107434;-71
2022/12/23 04:05:44;;;;;;;14.10;8.60;;;;;;;6.84;89.05;99107.70;125702;1296;107810;-71
2022/12/23 04:08:51;;;;;;;12.90;9.00;;;;;;;6.84;89.05;99102.79;125908;1300;107943;-71
2022/12/23 04:11:58;;;;;;;11.50;9.00;;;;;;;6.82;89.28;99094.79;125906;1304;107273;-71
2022/12/23 04:15:04;;;;;;;12.60;9.00;;;;;;;6.79;89.16;99091.62;125969;1301;108763;-71
2022/12/23 04:18:10;;;;;;;12.60;9.10;;;;;;;6.73;88.90;99094.34;126026;1304;108684;-71
2022/12/23 04:21:16;;;;;;;11.40;8.00;;;;;;;6.66;88.92;99094.00;125888;1304;107616;-71
2022/12/23 04:24:21;;;;;;;11.00;7.90;;;;;;;6.58;88.82;99090.77;126001;1304;107404;-70
2022/12/23 04:27:27;;;;;;;11.90;7.80;;;;;;;6.52;88.78;99096.52;125999;1296;107558;-71
2022/12/23 04:30:32;;;;;;;11.90;8.20;;;;;;;6.47;88.74;99090.56;125981;1304;107534;-71
2022/12/23 04:33:38;;;;;;;13.90;9.20;;;;;;;6.45;88.82;99091.03;125991;1304;107536;-71
2022/12/23 04:36:43;;;;;;;12.60;9.00;;;;;;;6.44;88.94;99092.01;125945;1304;107445;-71
2022/12/23 04:39:49;;;;;;;14.20;9.50;;;;;;;6.44;89.02;99095.55;125983;1297;107589;-71
2022/12/23 04:42:54;;;;;;;15.30;9.90;;;;;;;6.43;88.92;99097.54;126008;1300;108727;-71
2022/12/23 04:46:00;;;;;;;12.00;8.00;;;;;;;6.42;88.64;99099.11;125997;1304;107618;-71
2022/12/23 04:49:05;;;;;;;10.70;7.40;;;;;;;6.40;88.44;99103.34;125989;1304;107595;-71
2022/12/23 04:52:11;;;;;;;15.60;9.80;;;;;;;6.38;88.67;99103.95;125869;1304;107542;-71
2022/12/23 04:55:17;;;;;;;58.70;26.60;;;;;;;6.35;88.48;99107.77;125829;1304;108311;-71
2022/12/23 04:58:23;;;;;;;116.20;47.10;;;;;;;6.31;88.31;99107.65;126026;1304;107632;-71
2022/12/23 05:01:29;;;;;;;168.60;78.00;;;;;;;6.29;88.44;99114.52;126053;1306;107194;-71
2022/12/23 05:04:35;;;;;;;159.20;80.90;;;;;;;6.29;88.35;99108.35;125993;1290;107482;-72
2022/12/23 05:07:40;;;;;;;62.40;33.70;;;;;;;6.29;88.71;99111.14;125983;1304;106647;-71
2022/12/23 05:10:47;;;;;;;26.70;16.60;;;;;;;6.27;88.42;99111.83;125968;1304;107540;-71
2022/12/23 05:13:52;;;;;;;87.40;36.30;;;;;;;6.23;88.12;99114.39;126002;1301;107388;-71
2022/12/23 05:16:58;;;;;;;27.60;16.70;;;;;;;6.19;88.41;99116.05;125873;1303;106322;-71
2022/12/23 05:20:04;;;;;;;23.00;15.60;;;;;;;6.19;88.78;99116.59;125905;1304;108157;-71
2022/12/23 05:23:09;;;;;;;51.40;34.70;;;;;;;6.20;88.30;99123.21;126028;1304;107898;-71
2022/12/23 05:26:15;;;;;;;39.50;28.10;;;;;;;6.17;88.55;99121.67;125999;1304;108675;-71
2022/12/23 05:29:21;;;;;;;186.00;83.60;;;;;;;6.15;88.37;99121.52;125897;1304;108154;-70
2022/12/23 05:32:26;;;;;;;124.80;65.20;;;;;;;6.14;88.70;99127.16;125900;1287;108168;-71
2022/12/23 05:35:32;;;;;;;312.60;106.30;;;;;;;6.09;88.53;99127.23;125873;1310;108328;-70
2022/12/23 05:38:37;;;;;;;636.50;247.60;;;;;;;6.08;88.52;99132.84;125890;1293;108105;-71
2022/12/23 05:41:44;;;;;;;138.20;47.50;;;;;;;6.07;88.57;99137.14;125944;1304;108200;-71
2022/12/23 05:44:50;;;;;;;309.90;86.70;;;;;;;6.09;88.78;99134.64;125903;1297;107150;-71
2022/12/23 05:47:55;;;;;;;144.60;46.80;;;;;;;6.13;88.46;99134.63;125815;1304;108039;-73
2022/12/23 05:51:01;;;;;;;56.20;34.10;;;;;;;6.16;88.34;99130.83;126077;1304;107553;-74
2022/12/23 05:54:07;;;;;;;29.20;17.80;;;;;;;6.16;88.35;99136.86;126036;1300;107566;-73
2022/12/23 05:57:12;;;;;;;26.50;15.30;;;;;;;6.15;88.12;99145.36;126013;1304;107425;-74
2022/12/23 06:00:20;;;;;;;67.40;32.10;;;;;;;6.14;88.54;99143.42;125999;1304;107561;-70
2022/12/23 06:03:25;;;;;;;335.40;152.90;;;;;;;6.12;88.51;99145.00;126050;1302;107513;-71
2022/12/23 06:06:31;;;;;;;102.90;48.90;;;;;;;6.13;88.34;99147.60;125901;1296;108276;-70
2022/12/23 06:09:36;;;;;;;44.00;23.80;;;;;;;6.15;88.08;99148.81;125878;1298;108160;-73
2022/12/23 06:12:41;;;;;;;24.90;15.80;;;;;;;6.15;88.34;99145.20;126053;1304;106593;-73
2022/12/23 06:15:48;;;;;;;23.00;15.50;;;;;;;6.13;88.34;99141.91;126059;1304;107265;-71
2022/12/23 06:18:56;;;;;;;23.20;15.10;;;;;;;6.07;88.22;99139.30;126039;1304;107539;-71
2022/12/23 06:22:02;;;;;;;38.90;26.80;;;;;;;6.01;88.26;99146.29;126023;1300;107383;-71
2022/12/23 06:25:09;;;;;;;36.20;23.00;;;;;;;5.94;88.48;99148.17;126033;1304;106881;-71
2022/12/23 06:28:15;;;;;;;46.30;28.90;;;;;;;5.86;88.39;99145.55;125914;1304;106653;-71
2022/12/23 06:31:20;;;;;;;53.60;34.10;;;;;;;5.82;88.46;99153.52;126020;1298;107610;-72
2022/12/23 06:34:26;;;;;;;29.50;20.20;;;;;;;5.82;88.39;99152.33;126021;1304;107530;-72
2022/12/23 06:37:31;;;;;;;24.20;17.20;;;;;;;5.82;88.38;99152.86;126048;1304;106399;-72
2022/12/23 06:40:37;;;;;;;24.90;15.60;;;;;;;5.82;88.51;99155.84;126023;1304;105715;-71
2022/12/23 06:43:43;;;;;;;26.00;17.20;;;;;;;5.80;88.43;99153.76;126052;1304;107534;-71
2022/12/23 06:46:48;;;;;;;32.30;19.00;;;;;;;5.77;88.08;99155.28;126052;1304;107568;-71
2022/12/23 06:49:54;;;;;;;158.40;57.60;;;;;;;5.71;88.16;99157.39;125963;1297;107547;-72
2022/12/23 06:53:00;;;;;;;37.00;19.20;;;;;;;5.70;88.52;99162.32;126034;1304;105946;-71
2022/12/23 06:56:07;;;;;;;41.00;21.00;;;;;;;5.71;88.49;99160.09;125917;1302;107271;-70
2022/12/23 06:59:13;;;;;;;95.50;42.70;;;;;;;5.77;88.68;99163.86;126013;1304;107547;-74
2022/12/23 07:02:18;;;;;;;90.90;39.50;;;;;;;5.85;88.76;99167.34;126084;1304;107568;-75
2022/12/23 07:05:24;;;;;;;75.90;37.50;;;;;;;5.92;88.77;99170.39;126059;1304;108421;-74
2022/12/23 07:08:29;;;;;;;42.70;23.70;;;;;;;5.97;88.67;99169.55;126026;1297;107824;-75
2022/12/23 07:11:35;;;;;;;35.70;18.70;;;;;;;5.97;88.22;99165.58;125990;1300;107483;-75
2022/12/23 07:14:41;;;;;;;31.50;17.20;;;;;;;5.96;88.59;99159.62;126038;1297;107274;-75
2022/12/23 07:17:46;;;;;;;28.40;16.20;;;;;;;5.99;88.76;99150.34;126015;1304;107598;-73
2022/12/23 07:20:52;;;;;;;27.10;16.50;;;;;;;6.03;88.80;99149.95;126017;1304;107607;-74
2022/12/23 07:23:58;;;;;;;31.70;17.70;;;;;;;6.07;88.46;99154.59;126010;1304;107474;-74
2022/12/23 07:27:03;;;;;;;41.80;23.80;;;;;;;6.12;88.51;99159.10;126075;1289;107523;-75
2022/12/23 07:30:11;;;;;;;28.80;17.80;;;;;;;6.16;88.45;99159.20;126046;1304;106917;-75
2022/12/23 07:33:16;;;;;;;25.60;15.10;;;;;;;6.20;88.45;99164.02;126043;1304;107547;-76
2022/12/23 07:36:22;;;;;;;30.40;16.80;;;;;;;6.24;88.65;99162.13;126010;1304;107387;-77
2022/12/23 07:39:27;;;;;;;26.40;15.90;;;;;;;6.31;88.65;99160.79;126036;1301;108693;-75
2022/12/23 07:42:33;;;;;;;47.60;21.30;;;;;;;6.41;88.71;99160.98;126032;1304;106557;-75
2022/12/23 07:45:38;;;;;;;93.90;36.80;;;;;;;6.52;88.94;99161.47;126060;1311;108691;-75
2022/12/23 07:48:44;;;;;;;45.40;23.40;;;;;;;6.59;88.84;99159.23;126036;1304;107699;-75
2022/12/23 07:51:49;;;;;;;35.10;18.70;;;;;;;6.64;88.77;99157.15;126005;1299;106994;-75
2022/12/23 07:54:55;;;;;;;34.60;20.80;;;;;;;6.65;88.58;99156.96;126002;1304;107744;-74
2022/12/23 07:58:00;;;;;;;45.90;22.30;;;;;;;6.65;88.66;99158.45;126009;1297;107589;-75
2022/12/23 08:01:07;;;;;;;87.10;32.10;;;;;;;6.68;88.83;99153.39;126021;1303;106095;-75
2022/12/23 08:04:13;;;;;;;32.10;18.00;;;;;;;6.72;88.91;99153.52;126025;1300;107594;-74
2022/12/23 08:07:18;;;;;;;37.00;19.90;;;;;;;6.78;88.85;99146.18;126032;1297;105462;-74
2022/12/23 08:10:24;;;;;;;36.50;20.60;;;;;;;6.84;88.68;99141.86;126019;1297;107560;-75
2022/12/23 08:13:30;;;;;;;65.50;31.50;;;;;;;6.87;88.85;99140.16;126032;1304;107700;-75
2022/12/23 08:16:36;;;;;;;47.20;24.40;;;;;;;6.89;88.85;99143.13;126074;1308;107537;-75
2022/12/23 08:19:41;;;;;;;32.90;17.30;;;;;;;6.88;89.01;99141.06;126028;1304;106575;-73
2022/12/23 08:22:47;;;;;;;56.90;25.40;;;;;;;6.90;88.96;99129.71;126030;1304;108710;-71
2022/12/23 08:26:00;;;;;;;35.80;19.60;;;;;;;6.96;88.84;99125.63;126016;1304;107525;-71
2022/12/23 08:29:05;;;;;;;35.00;19.30;;;;;;;7.03;88.72;99121.88;126084;1309;107555;-72
2022/12/23 08:32:11;;;;;;;30.40;18.20;;;;;;;7.09;88.81;99118.96;126065;1304;108647;-72
2022/12/23 08:35:17;;;;;;;29.80;18.70;;;;;;;7.13;88.77;99113.28;126066;1304;107683;-71
2022/12/23 08:38:22;;;;;;;33.10;20.50;;;;;;;7.15;88.51;99106.98;125933;1304;108031;-71
2022/12/23 08:41:30;;;;;;;28.70;16.20;;;;;;;7.18;88.65;99103.37;126009;1304;106609;-71
2022/12/23 08:44:36;;;;;;;36.20;18.50;;;;;;;7.19;88.61;99106.41;126026;1306;107544;-71
2022/12/23 08:47:41;;;;;;;51.20;25.20;;;;;;;7.22;88.57;99108.38;125887;1287;108823;-73
2022/12/23 08:50:47;;;;;;;76.00;34.90;;;;;;;7.27;88.43;99102.98;125964;1304;106696;-69
2022/12/23 08:53:56;;;;;;;38.50;21.70;;;;;;;7.31;88.41;99100.91;125949;1304;108629;-70
2022/12/23 08:57:02;;;;;;;48.60;25.00;;;;;;;7.36;88.29;99100.27;125930;1304;107735;-71
2022/12/23 09:00:10;;;;;;;31.10;18.80;;;;;;;7.40;88.08;99095.92;125940;1304;108097;-73
2022/12/23 09:03:15;;;;;;;29.60;17.90;;;;;;;7.44;88.32;99089.84;126053;1305;107507;-73
2022/12/23 09:06:23;;;;;;;23.30;14.60;;;;;;;7.44;88.31;99081.65;126018;1304;107572;-73
2022/12/23 09:09:28;;;;;;;23.90;14.90;;;;;;;7.47;88.50;99077.84;126019;1300;107374;-74
2022/12/23 09:12:34;;;;;;;24.60;16.30;;;;;;;7.53;88.28;99071.06;126040;1304;109637;-74
2022/12/23 09:15:43;;;;;;;33.80;20.90;;;;;;;7.62;88.39;99068.97;126044;1304;107480;-75
2022/12/23 09:18:49;;;;;;;37.00;23.00;;;;;;;7.74;88.32;99064.35;126074;1306;107382;-74
2022/12/23 09:21:55;;;;;;;27.00;17.70;;;;;;;7.80;88.24;99058.98;126059;1304;108441;-74
2022/12/23 09:25:01;;;;;;;25.90;17.60;;;;;;;7.83;88.29;99053.41;126121;1310;107318;-73
2022/12/23 09:28:07;;;;;;;26.20;17.50;;;;;;;7.86;87.93;99053.55;126039;1301;107297;-76
2022/12/23 09:31:14;;;;;;;23.80;15.60;;;;;;;7.81;87.90;99049.42;126078;1297;107580;-76
2022/12/23 09:34:19;;;;;;;21.70;13.90;;;;;;;7.78;87.91;99045.67;126114;1311;107532;-75
2022/12/23 09:37:25;;;;;;;25.10;16.50;;;;;;;7.78;87.89;99042.48;126013;1304;108210;-72
2022/12/23 09:40:34;;;;;;;26.20;16.70;;;;;;;7.79;87.87;99047.89;125925;1304;108038;-70
2022/12/23 09:43:49;;;;;;;31.40;20.70;;;;;;;7.81;87.91;99043.19;125907;1288;109327;-70
2022/12/23 09:46:59;;;;;;;45.20;30.20;;;;;;;7.81;87.54;99040.92;126078;1294;108129;-71
2022/12/23 09:50:16;;;;;;;32.00;21.90;;;;;;;7.80;87.65;99035.61;126101;1294;107535;-71
2022/12/23 09:53:26;;;;;;;26.60;18.10;;;;;;;7.74;87.59;99031.92;126029;1293;107524;-74
2022/12/23 09:56:45;;;;;;;26.60;16.80;;;;;;;7.67;87.59;99025.45;125930;1290;107449;-70
2022/12/23 10:00:02;;;;;;;33.60;19.00;;;;;;;7.63;87.57;99028.52;125869;1280;107553;-71
2022/12/23 10:03:20;;;;;;;47.40;25.80;;;;;;;7.62;87.41;99026.73;126093;1304;108695;-71
2022/12/23 10:06:29;;;;;;;29.80;18.60;;;;;;;7.62;87.21;99025.11;126051;1308;107356;-71
2022/12/23 10:09:40;;;;;;;33.70;20.90;;;;;;;7.64;87.39;99019.17;126036;1305;107434;-73
2022/12/23 10:12:49;;;;;;;32.80;20.30;;;;;;;7.66;87.27;99011.58;126072;1302;107546;-72
2022/12/23 10:15:58;;;;;;;46.30;25.50;;;;;;;7.68;87.23;99011.59;126085;1311;107614;-71
2022/12/23 10:19:08;;;;;;;32.00;20.00;;;;;;;7.70;87.23;99010.09;126036;1299;107535;-71
2022/12/23 10:22:23;;;;;;;46.50;23.20;;;;;;;7.70;87.17;99008.13;126011;1304;107320;-71
2022/12/23 10:25:33;;;;;;;53.80;25.10;;;;;;;7.72;87.17;99003.48;125993;1296;107456;-72
2022/12/23 10:28:38;;;;;;;53.50;26.40;;;;;;;7.80;87.08;98998.06;126425;1302;107437;-73
2022/12/23 10:31:52;;;;;;;46.20;25.20;;;;;;;7.89;87.23;98993.42;126105;1310;107316;-71
2022/12/23 10:35:03;;;;;;;32.60;20.40;;;;;;;7.99;87.05;98991.59;126051;1309;107350;-72
2022/12/23 10:38:24;;;;;;;29.90;20.20;;;;;;;8.04;87.07;98989.23;125988;1304;107255;-72
2022/12/23 10:41:39;;;;;;;74.00;36.60;;;;;;;8.09;87.16;98989.81;126058;1304;107385;-73
2022/12/23 10:45:07;;;;;;;98.20;45.70;;;;;;;8.14;87.01;98983.19;126041;1305;108689;-71
2022/12/23 10:48:29;;;;;;;37.50;19.80;;;;;;;8.16;86.86;98977.16;126001;1306;107772;-76
2022/12/23 10:51:41;;;;;;;25.90;16.50;;;;;;;8.17;86.93;98973.13;125930;1306;107543;-71
2022/12/23 10:54:48;;;;;;;27.40;18.40;;;;;;;8.19;86.91;98971.46;125957;1312;107533;-71
2022/12/23 10:57:56;;;;;;;28.30;18.60;;;;;;;8.21;86.76;98971.59;125993;1302;107625;-71
2022/12/23 11:01:07;;;;;;;28.60;19.20;;;;;;;8.23;86.78;98969.59;125960;1306;107533;-70
2022/12/23 11:04:17;;;;;;;31.80;20.40;;;;;;;8.27;86.94;98964.54;125873;1306;107560;-74
2022/12/23 11:07:26;;;;;;;26.50;17.80;;;;;;;8.31;86.78;98962.98;125945;1312;107566;-71
2022/12/23 11:10:33;;;;;;;28.40;18.40;;;;;;;8.34;86.70;98954.29;126022;1306;107572;-70
2022/12/23 11:13:40;;;;;;;25.20;15.80;;;;;;;8.33;86.51;98949.63;125956;1301;107562;-70
2022/12/23 11:16:47;;;;;;;23.00;14.70;;;;;;;8.32;86.72;98949.48;125789;1312;108214;-70
2022/12/23 11:20:11;;;;;;;24.00;16.40;;;;;;;8.34;86.81;98953.56;125834;1306;107268;-70
2022/12/23 11:23:28;;;;;;;24.90;16.80;;;;;;;8.35;86.70;98948.17;125708;1305;108216;-69
2022/12/23 11:26:34;;;;;;;24.30;16.60;;;;;;;8.35;86.54;98944.35;125688;1303;108189;-70
2022/12/23 11:29:45;;;;;;;23.80;17.30;;;;;;;8.36;86.53;98942.65;125728;1295;107543;-70
2022/12/23 11:32:51;;;;;;;28.10;18.30;;;;;;;8.34;86.45;98942.02;125616;1308;107420;-69
2022/12/23 11:36:06;;;;;;;26.50;17.80;;;;;;;8.30;86.52;98937.20;125737;1312;107311;-72
2022/12/23 11:39:22;;;;;;;27.00;16.40;;;;;;;8.23;86.54;98933.50;125878;1297;106943;-70
2022/12/23 11:42:30;;;;;;;24.60;14.70;;;;;;;8.19;86.63;98935.36;125772;1303;107941;-71
2022/12/23 11:45:38;;;;;;;27.20;17.30;;;;;;;8.21;86.75;98938.98;125844;1303;107496;-70
2022/12/23 11:48:43;;;;;;;26.00;16.60;;;;;;;8.28;86.88;98933.11;125763;1302;107570;-70
2022/12/23 11:52:01;;;;;;;27.50;17.70;;;;;;;8.37;86.78;98933.18;125768;1305;107912;-70
2022/12/23 11:55:22;;;;;;;24.60;16.30;;;;;;;8.45;86.59;98927.67;125797;1306;107559;-70
2022/12/23 11:58:31;;;;;;;24.10;16.20;;;;;;;8.49;86.69;98928.85;125727;1306;108266;-72
2022/12/23 12:01:38;;;;;;;24.60;16.30;;;;;;;8.51;86.63;98928.15;125916;1309;107589;-70
2022/12/23 12:04:50;;;;;;;29.00;14.90;;;;;;;8.48;86.65;98925.94;125782;1312;106577;-72
2022/12/23 12:08:01;;;;;;;353.30;159.60;;;;;;;8.44;86.78;98929.91;125817;1312;106264;-70
2022/12/23 12:11:13;;;;;;;47.50;28.40;;;;;;;8.41;86.85;98927.20;125755;1306;108234;-69
2022/12/23 12:14:28;;;;;;;43.10;26.80;;;;;;;8.41;86.90;98927.77;125795;1304;108265;-70
2022/12/23 12:17:39;;;;;;;32.90;20.50;;;;;;;8.37;86.98;98930.33;125831;1305;108135;-70
2022/12/23 12:20:48;;;;;;;26.10;17.80;;;;;;;8.37;86.92;98935.30;125888;1305;107471;-70
2022/12/23 12:23:58;;;;;;;27.00;19.20;;;;;;;8.33;87.01;98933.66;125795;1310;107020;-70
2022/12/23 12:27:07;;;;;;;21.70;14.30;;;;;;;8.27;87.05;98936.07;125717;1309;108119;-70
2022/12/23 12:30:18;;;;;;;17.60;11.90;;;;;;;8.24;87.07;98935.12;125959;1310;107293;-71
2022/12/23 12:33:28;;;;;;;23.90;14.70;;;;;;;8.23;87.22;98931.20;125965;1312;105787;-70
2022/12/23 12:36:43;;;;;;;21.40;13.60;;;;;;;8.24;87.36;98936.02;125809;1304;107551;-70
2022/12/23 12:39:54;;;;;;;18.80;13.30;;;;;;;8.27;87.27;98935.55;125813;1302;108069;-70
2022/12/23 12:43:03;;;;;;;20.00;13.00;;;;;;;8.26;87.28;98932.95;125808;1306;108153;-70
2022/12/23 12:46:23;;;;;;;20.90;14.10;;;;;;;8.21;87.22;98927.98;125838;1306;106786;-71
2022/12/23 12:49:35;;;;;;;18.60;12.20;;;;;;;8.17;87.35;98931.27;125985;1309;108142;-70
2022/12/23 12:52:42;;;;;;;18.30;11.10;;;;;;;8.13;87.50;98932.09;125945;1309;107370;-70
2022/12/23 12:55:53;;;;;;;17.70;12.30;;;;;;;8.12;87.63;98937.93;125891;1309;107726;-69
2022/12/23 12:58:59;;;;;;;18.90;12.80;;;;;;;8.12;87.77;98941.05;125780;1303;108192;-70
2022/12/23 13:02:28;;;;;;;18.40;12.30;;;;;;;8.14;87.68;98940.83;125838;1309;107415;-70
2022/12/23 13:05:53;;;;;;;16.90;12.40;;;;;;;8.13;87.80;98937.64;125856;1303;108245;-70
2022/12/23 13:09:07;;;;;;;19.00;12.00;;;;;;;8.10;87.73;98929.92;125817;1307;108109;-70
2022/12/23 13:12:22;;;;;;;14.60;10.00;;;;;;;8.08;87.83;98935.68;125768;1303;108152;-70
2022/12/23 13:15:33;;;;;;;15.40;9.50;;;;;;;8.10;88.12;98939.04;125792;1306;107700;-72
2022/12/23 13:18:47;;;;;;;14.10;10.10;;;;;;;8.14;88.28;98942.22;125973;1301;107412;-72
2022/12/23 13:22:00;;;;;;;17.50;11.20;;;;;;;8.20;88.19;98943.52;125990;1309;107721;-71
2022/12/23 13:25:14;;;;;;;15.60;10.70;;;;;;;8.24;88.30;98940.83;125862;1303;107667;-70
2022/12/23 13:28:33;;;;;;;15.40;9.80;;;;;;;8.26;88.12;98937.89;124867;1305;1226866;-71
2022/12/23 13:31:49;;;;;;;17.10;11.00;;;;;;;8.25;88.14;98937.02;125963;1306;107504;-71
2022/12/23 13:35:03;;;;;;;14.10;9.10;;;;;;;8.20;88.26;98933.07;125972;1305;107526;-71
2022/12/23 13:38:25;;;;;;;13.80;8.30;;;;;;;8.22;88.41;98925.11;125910;1309;107485;-71
2022/12/23 13:41:35;;;;;;;14.50;9.90;;;;;;;8.24;88.40;98928.41;125992;1302;107424;-71
2022/12/23 13:44:41;;;;;;;15.30;10.20;;;;;;;8.26;88.51;98928.48;125991;1294;107408;-71
2022/12/23 13:47:58;;;;;;;15.20;10.30;;;;;;;8.29;88.31;98929.98;126001;1296;107415;-71
2022/12/23 13:51:12;;;;;;;15.60;11.20;;;;;;;8.28;88.51;98935.27;125931;1303;107405;-71
2022/12/23 13:54:27;;;;;;;15.70;11.30;;;;;;;8.23;88.44;98930.98;125947;1305;107420;-71
2022/12/23 13:57:47;;;;;;;12.70;8.90;;;;;;;8.18;88.45;98940.58;125985;1309;107249;-71
2022/12/23 14:01:20;;;;;;;14.40;9.10;;;;;;;8.16;88.56;98939.79;125910;1304;107451;-71
2022/12/23 14:04:56;;;;;;;15.10;10.20;;;;;;;8.14;88.65;98939.33;126018;1303;106326;-71
2022/12/23 14:08:04;;;;;;;17.30;11.20;;;;;;;8.16;88.66;98947.40;125938;1309;107704;-71
2022/12/23 14:11:19;;;;;;;15.30;10.90;;;;;;;8.17;88.61;98949.88;125981;1306;107402;-71
2022/12/23 14:14:27;;;;;;;17.70;10.90;;;;;;;8.17;88.64;98954.52;125988;1305;107500;-71
2022/12/23 14:17:41;;;;;;;16.00;10.00;;;;;;;8.14;88.69;98952.91;126000;1306;108380;-71
2022/12/23 14:20:51;;;;;;;15.80;9.20;;;;;;;8.08;88.81;98954.27;125925;1306;107394;-75
2022/12/23 14:24:11;;;;;;;16.60;11.00;;;;;;;8.07;88.76;98954.76;126017;1302;108622;-71
2022/12/23 14:27:51;;;;;;;30.20;18.20;;;;;;;8.10;88.83;98959.02;126082;1305;107475;-73
2022/12/23 14:30:57;;;;;;;32.70;18.50;;;;;;;8.12;88.87;98958.59;125277;1299;108679;-73
2022/12/23 14:34:29;;;;;;;180.20;71.20;;;;;;;8.13;88.78;98962.54;125913;1298;108705;-70
2022/12/23 14:37:38;;;;;;;72.80;30.40;;;;;;;8.10;89.00;98970.14;125655;1306;108186;-70
2022/12/23 14:41:09;;;;;;;52.40;23.40;;;;;;;8.05;88.83;98970.57;125958;1295;106322;-69